sensor_id;sensor_type;location;lat;lon;timestamp;P1;durP1;ratioP1;P2;durP2;ratioP2
5999;SDS011;3028;49.468;7.694;2022-09-29T00:00:02;10.85;;;3.05;;
5999;SDS011;3028;49.468;7.694;2022-09-29T00:02:04;4.28;;;3.90;;
5999;SDS011;3028;49.468;7.694;2022-09-29T00:04:06;4.82;;;4.35;;
5999;SDS011;3028;49.468;7.694;2022-09-29T00:06:14;5.28;;;3.42;;
5999;SDS011;3028;49.468;7.694;2022-09-29T00:08:18;4.25;;;3.90;;
5999;SDS011;3028;49.468;7.694;2022-09-29T00:10:21;6.15;;;2.80;;
5999;SDS011;3028;49.468;7.694;2022-09-29T00:12:24;26.85;;;3.38;;
5999;SDS011;3028;49.468;7.694;2022-09-29T00:14:25;6.22;;;3.08;;
5999;SDS011;3028;49.468;7.694;2022-09-29T00:16:27;4.05;;;2.75;;
5999;SDS011;3028;49.468;7.694;2022-09-29T00:18:30;4.38;;;2.75;;
5999;SDS011;3028;49.468;7.694;2022-09-29T00:20:32;2.65;;;2.45;;
5999;SDS011;3028;49.468;7.694;2022-09-29T00:22:34;2.90;;;2.60;;
5999;SDS011;3028;49.468;7.694;2022-09-29T00:24:35;2.95;;;2.70;;
5999;SDS011;3028;49.468;7.694;2022-09-29T00:26:37;3.42;;;2.70;;
5999;SDS011;3028;49.468;7.694;2022-09-29T00:28:40;2.47;;;1.92;;
5999;SDS011;3028;49.468;7.694;2022-09-29T00:30:45;8.80;;;2.67;;
5999;SDS011;3028;49.468;7.694;2022-09-29T00:32:47;4.53;;;3.03;;
5999;SDS011;3028;49.468;7.694;2022-09-29T00:34:49;2.53;;;2.33;;
5999;SDS011;3028;49.468;7.694;2022-09-29T00:36:51;2.70;;;2.08;;
5999;SDS011;3028;49.468;7.694;2022-09-29T00:38:53;2.35;;;2.20;;
5999;SDS011;3028;49.468;7.694;2022-09-29T00:40:54;4.45;;;2.25;;
5999;SDS011;3028;49.468;7.694;2022-09-29T00:42:56;5.97;;;3.10;;
5999;SDS011;3028;49.468;7.694;2022-09-29T00:45:00;4.25;;;2.45;;
5999;SDS011;3028;49.468;7.694;2022-09-29T00:47:08;3.17;;;2.88;;
5999;SDS011;3028;49.468;7.694;2022-09-29T00:52:05;5.25;;;3.45;;
5999;SDS011;3028;49.468;7.694;2022-09-29T00:54:10;2.90;;;2.47;;
5999;SDS011;3028;49.468;7.694;2022-09-29T00:56:13;7.45;;;2.58;;
5999;SDS011;3028;49.468;7.694;2022-09-29T00:58:35;2.80;;;2.60;;
5999;SDS011;3028;49.468;7.694;2022-09-29T01:00:39;2.58;;;2.38;;
5999;SDS011;3028;49.468;7.694;2022-09-29T01:02:43;4.70;;;3.13;;
5999;SDS011;3028;49.468;7.694;2022-09-29T01:04:47;4.80;;;2.88;;
5999;SDS011;3028;49.468;7.694;2022-09-29T01:06:53;3.47;;;3.13;;
5999;SDS011;3028;49.468;7.694;2022-09-29T01:09:03;4.20;;;2.85;;
5999;SDS011;3028;49.468;7.694;2022-09-29T01:11:07;3.47;;;2.78;;
5999;SDS011;3028;49.468;7.694;2022-09-29T01:13:10;4.70;;;2.50;;
5999;SDS011;3028;49.468;7.694;2022-09-29T01:15:12;3.72;;;3.28;;
5999;SDS011;3028;49.468;7.694;2022-09-29T01:17:14;3.67;;;3.00;;
5999;SDS011;3028;49.468;7.694;2022-09-29T01:27:23;7.70;;;3.13;;
5999;SDS011;3028;49.468;7.694;2022-09-29T01:29:48;3.97;;;3.22;;
5999;SDS011;3028;49.468;7.694;2022-09-29T01:38:42;2.80;;;2.35;;
5999;SDS011;3028;49.468;7.694;2022-09-29T01:41:02;3.15;;;2.95;;
5999;SDS011;3028;49.468;7.694;2022-09-29T01:43:10;3.83;;;1.92;;
5999;SDS011;3028;49.468;7.694;2022-09-29T01:45:37;3.92;;;2.92;;
5999;SDS011;3028;49.468;7.694;2022-09-29T01:47:43;2.92;;;2.63;;
5999;SDS011;3028;49.468;7.694;2022-09-29T01:49:53;2.70;;;2.45;;
5999;SDS011;3028;49.468;7.694;2022-09-29T01:54:11;3.10;;;2.80;;
5999;SDS011;3028;49.468;7.694;2022-09-29T01:56:20;5.25;;;2.90;;
5999;SDS011;3028;49.468;7.694;2022-09-29T02:00:50;2.30;;;2.20;;
5999;SDS011;3028;49.468;7.694;2022-09-29T02:05:13;2.42;;;2.33;;
5999;SDS011;3028;49.468;7.694;2022-09-29T02:07:23;2.70;;;2.47;;
5999;SDS011;3028;49.468;7.694;2022-09-29T02:09:29;2.67;;;2.50;;
5999;SDS011;3028;49.468;7.694;2022-09-29T02:11:34;3.30;;;2.60;;
5999;SDS011;3028;49.468;7.694;2022-09-29T02:13:51;4.78;;;2.85;;
5999;SDS011;3028;49.468;7.694;2022-09-29T02:15:57;2.90;;;2.70;;
5999;SDS011;3028;49.468;7.694;2022-09-29T02:18:01;3.95;;;2.95;;
5999;SDS011;3028;49.468;7.694;2022-09-29T02:20:06;2.78;;;2.58;;
5999;SDS011;3028;49.468;7.694;2022-09-29T02:22:08;2.42;;;2.22;;
5999;SDS011;3028;49.468;7.694;2022-09-29T02:24:10;5.57;;;2.35;;
5999;SDS011;3028;49.468;7.694;2022-09-29T02:26:13;2.50;;;2.35;;
5999;SDS011;3028;49.468;7.694;2022-09-29T02:28:14;2.78;;;2.58;;
5999;SDS011;3028;49.468;7.694;2022-09-29T02:30:17;2.60;;;2.40;;
5999;SDS011;3028;49.468;7.694;2022-09-29T02:32:19;11.30;;;3.33;;
5999;SDS011;3028;49.468;7.694;2022-09-29T02:34:20;2.95;;;2.75;;
5999;SDS011;3028;49.468;7.694;2022-09-29T02:38:52;5.10;;;3.10;;
5999;SDS011;3028;49.468;7.694;2022-09-29T02:41:06;2.70;;;2.50;;
5999;SDS011;3028;49.468;7.694;2022-09-29T02:47:56;5.00;;;2.70;;
5999;SDS011;3028;49.468;7.694;2022-09-29T02:57:49;2.33;;;2.15;;
5999;SDS011;3028;49.468;7.694;2022-09-29T03:02:11;2.90;;;2.70;;
5999;SDS011;3028;49.468;7.694;2022-09-29T03:04:16;2.20;;;2.10;;
5999;SDS011;3028;49.468;7.694;2022-09-29T03:06:19;2.38;;;2.17;;
5999;SDS011;3028;49.468;7.694;2022-09-29T03:08:21;3.90;;;2.97;;
5999;SDS011;3028;49.468;7.694;2022-09-29T03:10:23;2.97;;;2.78;;
5999;SDS011;3028;49.468;7.694;2022-09-29T03:12:30;5.63;;;2.40;;
5999;SDS011;3028;49.468;7.694;2022-09-29T03:14:31;2.47;;;2.28;;
5999;SDS011;3028;49.468;7.694;2022-09-29T03:16:33;2.65;;;2.40;;
5999;SDS011;3028;49.468;7.694;2022-09-29T03:18:37;4.38;;;2.90;;
5999;SDS011;3028;49.468;7.694;2022-09-29T03:20:39;3.75;;;3.20;;
5999;SDS011;3028;49.468;7.694;2022-09-29T03:22:40;2.70;;;2.40;;
5999;SDS011;3028;49.468;7.694;2022-09-29T03:24:42;2.65;;;2.15;;
5999;SDS011;3028;49.468;7.694;2022-09-29T03:26:45;3.55;;;3.05;;
5999;SDS011;3028;49.468;7.694;2022-09-29T03:28:46;2.97;;;2.53;;
5999;SDS011;3028;49.468;7.694;2022-09-29T03:30:48;2.90;;;2.70;;
5999;SDS011;3028;49.468;7.694;2022-09-29T03:32:50;4.05;;;2.60;;
5999;SDS011;3028;49.468;7.694;2022-09-29T03:34:52;3.47;;;3.17;;
5999;SDS011;3028;49.468;7.694;2022-09-29T03:36:54;3.53;;;3.10;;
5999;SDS011;3028;49.468;7.694;2022-09-29T03:38:55;3.13;;;2.83;;
5999;SDS011;3028;49.468;7.694;2022-09-29T03:40:57;3.72;;;3.42;;
5999;SDS011;3028;49.468;7.694;2022-09-29T03:42:59;4.47;;;2.97;;
5999;SDS011;3028;49.468;7.694;2022-09-29T03:45:01;2.92;;;2.72;;
5999;SDS011;3028;49.468;7.694;2022-09-29T03:47:02;4.78;;;3.35;;
5999;SDS011;3028;49.468;7.694;2022-09-29T03:49:04;4.70;;;2.50;;
5999;SDS011;3028;49.468;7.694;2022-09-29T03:51:05;3.63;;;2.75;;
5999;SDS011;3028;49.468;7.694;2022-09-29T03:53:07;2.63;;;2.42;;
5999;SDS011;3028;49.468;7.694;2022-09-29T03:55:09;5.90;;;2.92;;
5999;SDS011;3028;49.468;7.694;2022-09-29T03:57:10;2.40;;;2.30;;
5999;SDS011;3028;49.468;7.694;2022-09-29T03:59:12;4.55;;;2.75;;
5999;SDS011;3028;49.468;7.694;2022-09-29T04:01:15;3.08;;;2.88;;
5999;SDS011;3028;49.468;7.694;2022-09-29T04:03:17;2.60;;;2.40;;
5999;SDS011;3028;49.468;7.694;2022-09-29T04:05:18;2.88;;;2.67;;
5999;SDS011;3028;49.468;7.694;2022-09-29T04:07:20;3.10;;;2.88;;
5999;SDS011;3028;49.468;7.694;2022-09-29T04:09:22;3.08;;;2.85;;
5999;SDS011;3028;49.468;7.694;2022-09-29T04:11:23;2.88;;;2.67;;
5999;SDS011;3028;49.468;7.694;2022-09-29T04:13:25;3.00;;;2.80;;
5999;SDS011;3028;49.468;7.694;2022-09-29T04:15:27;3.40;;;2.88;;
5999;SDS011;3028;49.468;7.694;2022-09-29T04:17:28;2.60;;;2.38;;
5999;SDS011;3028;49.468;7.694;2022-09-29T04:19:30;2.72;;;2.53;;
5999;SDS011;3028;49.468;7.694;2022-09-29T04:21:32;4.22;;;2.25;;
5999;SDS011;3028;49.468;7.694;2022-09-29T04:23:34;3.03;;;2.78;;
5999;SDS011;3028;49.468;7.694;2022-09-29T04:25:36;3.33;;;3.13;;
5999;SDS011;3028;49.468;7.694;2022-09-29T04:27:38;4.80;;;4.50;;
5999;SDS011;3028;49.468;7.694;2022-09-29T04:29:39;8.80;;;3.83;;
5999;SDS011;3028;49.468;7.694;2022-09-29T04:31:41;5.25;;;3.30;;
5999;SDS011;3028;49.468;7.694;2022-09-29T04:33:43;3.85;;;3.05;;
5999;SDS011;3028;49.468;7.694;2022-09-29T04:35:45;8.02;;;3.03;;
5999;SDS011;3028;49.468;7.694;2022-09-29T04:37:47;3.20;;;2.95;;
5999;SDS011;3028;49.468;7.694;2022-09-29T04:39:48;3.45;;;2.75;;
5999;SDS011;3028;49.468;7.694;2022-09-29T04:41:51;3.63;;;3.33;;
5999;SDS011;3028;49.468;7.694;2022-09-29T04:43:52;3.22;;;2.92;;
5999;SDS011;3028;49.468;7.694;2022-09-29T04:46:00;2.65;;;2.45;;
5999;SDS011;3028;49.468;7.694;2022-09-29T04:48:03;3.35;;;3.10;;
5999;SDS011;3028;49.468;7.694;2022-09-29T04:50:05;2.90;;;2.67;;
5999;SDS011;3028;49.468;7.694;2022-09-29T04:52:09;2.70;;;2.50;;
5999;SDS011;3028;49.468;7.694;2022-09-29T04:54:12;3.45;;;3.20;;
5999;SDS011;3028;49.468;7.694;2022-09-29T04:56:13;3.13;;;2.90;;
5999;SDS011;3028;49.468;7.694;2022-09-29T04:58:15;6.68;;;3.47;;
5999;SDS011;3028;49.468;7.694;2022-09-29T05:00:17;3.08;;;2.83;;
5999;SDS011;3028;49.468;7.694;2022-09-29T05:02:18;3.25;;;2.58;;
5999;SDS011;3028;49.468;7.694;2022-09-29T05:04:20;4.90;;;3.70;;
5999;SDS011;3028;49.468;7.694;2022-09-29T05:06:22;3.40;;;2.88;;
5999;SDS011;3028;49.468;7.694;2022-09-29T05:08:23;3.08;;;2.88;;
5999;SDS011;3028;49.468;7.694;2022-09-29T05:10:25;2.78;;;2.58;;
5999;SDS011;3028;49.468;7.694;2022-09-29T05:12:27;2.22;;;2.10;;
5999;SDS011;3028;49.468;7.694;2022-09-29T05:14:28;3.03;;;2.83;;
5999;SDS011;3028;49.468;7.694;2022-09-29T05:16:30;3.25;;;2.95;;
5999;SDS011;3028;49.468;7.694;2022-09-29T05:18:32;3.13;;;2.80;;
5999;SDS011;3028;49.468;7.694;2022-09-29T05:20:34;3.15;;;2.95;;
5999;SDS011;3028;49.468;7.694;2022-09-29T05:22:47;4.32;;;2.70;;
5999;SDS011;3028;49.468;7.694;2022-09-29T05:24:49;3.30;;;3.10;;
5999;SDS011;3028;49.468;7.694;2022-09-29T05:26:52;3.63;;;3.33;;
5999;SDS011;3028;49.468;7.694;2022-09-29T05:28:58;4.00;;;2.83;;
5999;SDS011;3028;49.468;7.694;2022-09-29T05:31:05;4.13;;;3.83;;
5999;SDS011;3028;49.468;7.694;2022-09-29T05:33:09;3.20;;;3.00;;
5999;SDS011;3028;49.468;7.694;2022-09-29T05:35:10;3.15;;;2.95;;
5999;SDS011;3028;49.468;7.694;2022-09-29T05:37:12;3.83;;;3.58;;
5999;SDS011;3028;49.468;7.694;2022-09-29T05:39:14;3.35;;;3.05;;
5999;SDS011;3028;49.468;7.694;2022-09-29T05:41:18;3.58;;;3.38;;
5999;SDS011;3028;49.468;7.694;2022-09-29T05:43:23;3.13;;;2.92;;
5999;SDS011;3028;49.468;7.694;2022-09-29T05:45:25;3.40;;;3.08;;
5999;SDS011;3028;49.468;7.694;2022-09-29T05:47:29;3.47;;;3.20;;
5999;SDS011;3028;49.468;7.694;2022-09-29T05:49:35;3.88;;;3.58;;
5999;SDS011;3028;49.468;7.694;2022-09-29T05:51:37;5.22;;;4.93;;
5999;SDS011;3028;49.468;7.694;2022-09-29T05:53:38;6.97;;;4.65;;
5999;SDS011;3028;49.468;7.694;2022-09-29T05:55:41;4.60;;;4.30;;
5999;SDS011;3028;49.468;7.694;2022-09-29T05:57:46;4.43;;;4.15;;
5999;SDS011;3028;49.468;7.694;2022-09-29T05:59:48;4.20;;;3.42;;
5999;SDS011;3028;49.468;7.694;2022-09-29T06:01:50;4.18;;;3.80;;
5999;SDS011;3028;49.468;7.694;2022-09-29T06:03:55;3.28;;;2.97;;
5999;SDS011;3028;49.468;7.694;2022-09-29T06:05:58;3.40;;;3.10;;
5999;SDS011;3028;49.468;7.694;2022-09-29T06:08:14;5.97;;;4.20;;
5999;SDS011;3028;49.468;7.694;2022-09-29T06:10:16;3.65;;;3.45;;
5999;SDS011;3028;49.468;7.694;2022-09-29T06:12:19;4.43;;;3.85;;
5999;SDS011;3028;49.468;7.694;2022-09-29T06:14:22;4.30;;;3.85;;
5999;SDS011;3028;49.468;7.694;2022-09-29T06:16:24;10.30;;;4.13;;
5999;SDS011;3028;49.468;7.694;2022-09-29T06:18:31;4.53;;;3.03;;
5999;SDS011;3028;49.468;7.694;2022-09-29T06:20:32;4.47;;;4.07;;
5999;SDS011;3028;49.468;7.694;2022-09-29T06:22:38;4.88;;;4.47;;
5999;SDS011;3028;49.468;7.694;2022-09-29T06:24:40;4.60;;;4.20;;
5999;SDS011;3028;49.468;7.694;2022-09-29T06:26:42;5.32;;;4.85;;
5999;SDS011;3028;49.468;7.694;2022-09-29T06:28:44;6.47;;;4.78;;
5999;SDS011;3028;49.468;7.694;2022-09-29T06:30:46;5.15;;;4.65;;
5999;SDS011;3028;49.468;7.694;2022-09-29T06:32:50;5.63;;;4.07;;
5999;SDS011;3028;49.468;7.694;2022-09-29T06:34:52;4.68;;;4.28;;
5999;SDS011;3028;49.468;7.694;2022-09-29T06:37:12;3.47;;;3.28;;
5999;SDS011;3028;49.468;7.694;2022-09-29T06:39:33;6.53;;;4.07;;
5999;SDS011;3028;49.468;7.694;2022-09-29T06:41:34;6.82;;;5.88;;
5999;SDS011;3028;49.468;7.694;2022-09-29T06:43:36;6.13;;;5.70;;
5999;SDS011;3028;49.468;7.694;2022-09-29T06:45:38;8.57;;;7.97;;
5999;SDS011;3028;49.468;7.694;2022-09-29T06:47:40;6.40;;;5.90;;
5999;SDS011;3028;49.468;7.694;2022-09-29T06:49:42;6.97;;;5.60;;
5999;SDS011;3028;49.468;7.694;2022-09-29T06:51:59;5.57;;;4.35;;
5999;SDS011;3028;49.468;7.694;2022-09-29T06:54:13;4.85;;;4.18;;
5999;SDS011;3028;49.468;7.694;2022-09-29T06:56:16;5.00;;;4.60;;
5999;SDS011;3028;49.468;7.694;2022-09-29T06:58:18;5.63;;;4.47;;
5999;SDS011;3028;49.468;7.694;2022-09-29T07:00:21;5.05;;;4.65;;
5999;SDS011;3028;49.468;7.694;2022-09-29T07:02:22;4.78;;;4.47;;
5999;SDS011;3028;49.468;7.694;2022-09-29T07:04:24;5.70;;;4.45;;
5999;SDS011;3028;49.468;7.694;2022-09-29T07:06:26;5.00;;;4.68;;
5999;SDS011;3028;49.468;7.694;2022-09-29T07:08:28;5.60;;;5.10;;
5999;SDS011;3028;49.468;7.694;2022-09-29T07:10:34;9.73;;;5.20;;
5999;SDS011;3028;49.468;7.694;2022-09-29T07:12:35;4.38;;;4.10;;
5999;SDS011;3028;49.468;7.694;2022-09-29T07:14:37;6.35;;;5.75;;
5999;SDS011;3028;49.468;7.694;2022-09-29T07:16:39;5.57;;;5.03;;
5999;SDS011;3028;49.468;7.694;2022-09-29T07:18:41;6.35;;;5.85;;
5999;SDS011;3028;49.468;7.694;2022-09-29T07:20:43;7.50;;;5.53;;
5999;SDS011;3028;49.468;7.694;2022-09-29T07:22:45;6.85;;;6.35;;
5999;SDS011;3028;49.468;7.694;2022-09-29T07:24:47;7.97;;;5.63;;
5999;SDS011;3028;49.468;7.694;2022-09-29T07:26:51;6.45;;;5.95;;
5999;SDS011;3028;49.468;7.694;2022-09-29T07:28:53;9.02;;;5.80;;
5999;SDS011;3028;49.468;7.694;2022-09-29T07:31:04;5.95;;;5.45;;
5999;SDS011;3028;49.468;7.694;2022-09-29T07:33:15;8.30;;;6.72;;
5999;SDS011;3028;49.468;7.694;2022-09-29T07:35:38;6.95;;;6.25;;
5999;SDS011;3028;49.468;7.694;2022-09-29T07:37:40;7.47;;;6.97;;
5999;SDS011;3028;49.468;7.694;2022-09-29T07:39:42;7.20;;;6.60;;
5999;SDS011;3028;49.468;7.694;2022-09-29T07:41:44;6.75;;;6.07;;
5999;SDS011;3028;49.468;7.694;2022-09-29T07:43:46;6.68;;;5.82;;
5999;SDS011;3028;49.468;7.694;2022-09-29T07:45:48;9.57;;;5.63;;
5999;SDS011;3028;49.468;7.694;2022-09-29T07:47:51;7.75;;;6.30;;
5999;SDS011;3028;49.468;7.694;2022-09-29T07:49:53;6.38;;;5.03;;
5999;SDS011;3028;49.468;7.694;2022-09-29T07:51:54;6.05;;;5.53;;
5999;SDS011;3028;49.468;7.694;2022-09-29T07:54:00;5.72;;;4.90;;
5999;SDS011;3028;49.468;7.694;2022-09-29T07:56:08;6.43;;;4.93;;
5999;SDS011;3028;49.468;7.694;2022-09-29T07:58:10;8.55;;;5.95;;
5999;SDS011;3028;49.468;7.694;2022-09-29T08:00:12;9.05;;;5.85;;
5999;SDS011;3028;49.468;7.694;2022-09-29T08:02:14;6.40;;;5.85;;
5999;SDS011;3028;49.468;7.694;2022-09-29T08:04:15;5.70;;;5.13;;
5999;SDS011;3028;49.468;7.694;2022-09-29T08:06:17;6.22;;;5.68;;
5999;SDS011;3028;49.468;7.694;2022-09-29T08:08:20;8.05;;;5.18;;
5999;SDS011;3028;49.468;7.694;2022-09-29T08:10:22;6.93;;;6.28;;
5999;SDS011;3028;49.468;7.694;2022-09-29T08:12:24;6.22;;;5.45;;
5999;SDS011;3028;49.468;7.694;2022-09-29T08:14:42;8.75;;;7.85;;
5999;SDS011;3028;49.468;7.694;2022-09-29T08:16:44;7.28;;;6.57;;
5999;SDS011;3028;49.468;7.694;2022-09-29T08:18:46;8.43;;;7.82;;
5999;SDS011;3028;49.468;7.694;2022-09-29T08:20:47;7.50;;;6.90;;
5999;SDS011;3028;49.468;7.694;2022-09-29T08:22:49;8.85;;;6.35;;
5999;SDS011;3028;49.468;7.694;2022-09-29T08:24:51;7.55;;;6.88;;
5999;SDS011;3028;49.468;7.694;2022-09-29T08:26:53;7.78;;;7.07;;
5999;SDS011;3028;49.468;7.694;2022-09-29T08:28:58;8.85;;;7.82;;
5999;SDS011;3028;49.468;7.694;2022-09-29T08:31:09;9.10;;;8.25;;
5999;SDS011;3028;49.468;7.694;2022-09-29T08:33:13;8.55;;;7.75;;
5999;SDS011;3028;49.468;7.694;2022-09-29T08:35:15;8.05;;;7.30;;
5999;SDS011;3028;49.468;7.694;2022-09-29T08:37:17;7.45;;;6.80;;
5999;SDS011;3028;49.468;7.694;2022-09-29T08:39:18;9.25;;;7.07;;
5999;SDS011;3028;49.468;7.694;2022-09-29T08:41:26;9.23;;;8.40;;
5999;SDS011;3028;49.468;7.694;2022-09-29T08:43:42;9.32;;;7.03;;
5999;SDS011;3028;49.468;7.694;2022-09-29T08:45:55;8.68;;;7.93;;
5999;SDS011;3028;49.468;7.694;2022-09-29T08:48:23;10.50;;;9.60;;
5999;SDS011;3028;49.468;7.694;2022-09-29T08:50:31;9.98;;;9.18;;
5999;SDS011;3028;49.468;7.694;2022-09-29T08:52:37;10.57;;;9.77;;
5999;SDS011;3028;49.468;7.694;2022-09-29T08:54:58;11.60;;;10.70;;
5999;SDS011;3028;49.468;7.694;2022-09-29T08:57:19;11.85;;;10.77;;
5999;SDS011;3028;49.468;7.694;2022-09-29T08:59:21;11.15;;;10.25;;
5999;SDS011;3028;49.468;7.694;2022-09-29T09:01:32;11.00;;;10.02;;
5999;SDS011;3028;49.468;7.694;2022-09-29T09:03:51;10.52;;;9.48;;
5999;SDS011;3028;49.468;7.694;2022-09-29T09:08:33;10.82;;;7.93;;
5999;SDS011;3028;49.468;7.694;2022-09-29T09:10:45;9.02;;;8.23;;
5999;SDS011;3028;49.468;7.694;2022-09-29T09:13:04;7.30;;;6.78;;
5999;SDS011;3028;49.468;7.694;2022-09-29T09:22:20;8.05;;;7.35;;
5999;SDS011;3028;49.468;7.694;2022-09-29T09:24:33;6.70;;;6.10;;
5999;SDS011;3028;49.468;7.694;2022-09-29T09:26:57;8.43;;;7.50;;
5999;SDS011;3028;49.468;7.694;2022-09-29T09:31:32;7.15;;;6.65;;
5999;SDS011;3028;49.468;7.694;2022-09-29T09:33:41;9.55;;;6.45;;
5999;SDS011;3028;49.468;7.694;2022-09-29T09:36:37;7.47;;;6.97;;
5999;SDS011;3028;49.468;7.694;2022-09-29T09:40:46;6.80;;;6.18;;
5999;SDS011;3028;49.468;7.694;2022-09-29T09:42:51;6.82;;;6.32;;
5999;SDS011;3028;49.468;7.694;2022-09-29T09:44:58;7.15;;;6.53;;
5999;SDS011;3028;49.468;7.694;2022-09-29T09:47:37;6.35;;;5.53;;
5999;SDS011;3028;49.468;7.694;2022-09-29T09:49:36;6.47;;;5.88;;
5999;SDS011;3028;49.468;7.694;2022-09-29T09:51:46;7.07;;;6.50;;
5999;SDS011;3028;49.468;7.694;2022-09-29T09:53:53;6.32;;;5.85;;
5999;SDS011;3028;49.468;7.694;2022-09-29T09:59:04;6.03;;;5.43;;
5999;SDS011;3028;49.468;7.694;2022-09-29T10:01:11;6.78;;;6.22;;
5999;SDS011;3028;49.468;7.694;2022-09-29T10:03:13;8.07;;;7.47;;
5999;SDS011;3028;49.468;7.694;2022-09-29T10:05:17;8.27;;;7.47;;
5999;SDS011;3028;49.468;7.694;2022-09-29T10:07:21;8.05;;;7.28;;
5999;SDS011;3028;49.468;7.694;2022-09-29T10:09:24;7.32;;;6.63;;
5999;SDS011;3028;49.468;7.694;2022-09-29T10:11:27;7.38;;;6.68;;
5999;SDS011;3028;49.468;7.694;2022-09-29T10:13:31;7.30;;;6.60;;
5999;SDS011;3028;49.468;7.694;2022-09-29T10:17:41;7.10;;;6.15;;
5999;SDS011;3028;49.468;7.694;2022-09-29T10:21:57;5.93;;;5.47;;
5999;SDS011;3028;49.468;7.694;2022-09-29T10:24:23;7.38;;;6.88;;
5999;SDS011;3028;49.468;7.694;2022-09-29T10:26:43;7.22;;;6.40;;
5999;SDS011;3028;49.468;7.694;2022-09-29T10:28:49;6.18;;;5.57;;
5999;SDS011;3028;49.468;7.694;2022-09-29T10:30:52;6.60;;;5.72;;
5999;SDS011;3028;49.468;7.694;2022-09-29T10:32:56;11.43;;;5.85;;
5999;SDS011;3028;49.468;7.694;2022-09-29T10:37:33;6.82;;;6.25;;
5999;SDS011;3028;49.468;7.694;2022-09-29T10:39:42;7.05;;;5.95;;
5999;SDS011;3028;49.468;7.694;2022-09-29T10:41:49;9.13;;;6.40;;
5999;SDS011;3028;49.468;7.694;2022-09-29T10:43:54;6.80;;;6.13;;
5999;SDS011;3028;49.468;7.694;2022-09-29T10:45:56;7.30;;;5.63;;
5999;SDS011;3028;49.468;7.694;2022-09-29T10:50:08;7.85;;;6.93;;
5999;SDS011;3028;49.468;7.694;2022-09-29T10:52:24;8.05;;;6.00;;
5999;SDS011;3028;49.468;7.694;2022-09-29T10:54:27;6.22;;;5.72;;
5999;SDS011;3028;49.468;7.694;2022-09-29T10:56:32;7.35;;;6.65;;
5999;SDS011;3028;49.468;7.694;2022-09-29T10:58:35;5.65;;;5.20;;
5999;SDS011;3028;49.468;7.694;2022-09-29T11:01:05;7.47;;;6.85;;
5999;SDS011;3028;49.468;7.694;2022-09-29T11:05:16;5.80;;;5.20;;
5999;SDS011;3028;49.468;7.694;2022-09-29T11:07:20;5.95;;;5.55;;
5999;SDS011;3028;49.468;7.694;2022-09-29T11:09:26;6.13;;;5.53;;
5999;SDS011;3028;49.468;7.694;2022-09-29T11:13:38;6.35;;;5.30;;
5999;SDS011;3028;49.468;7.694;2022-09-29T11:15:40;6.80;;;5.25;;
5999;SDS011;3028;49.468;7.694;2022-09-29T11:17:42;5.93;;;5.28;;
5999;SDS011;3028;49.468;7.694;2022-09-29T11:19:54;8.20;;;6.00;;
5999;SDS011;3028;49.468;7.694;2022-09-29T11:26:31;6.85;;;5.22;;
5999;SDS011;3028;49.468;7.694;2022-09-29T11:36:20;8.30;;;4.63;;
5999;SDS011;3028;49.468;7.694;2022-09-29T11:40:53;7.07;;;4.45;;
5999;SDS011;3028;49.468;7.694;2022-09-29T11:45:45;6.63;;;4.00;;
5999;SDS011;3028;49.468;7.694;2022-09-29T11:50:27;4.55;;;3.88;;
5999;SDS011;3028;49.468;7.694;2022-09-29T11:59:23;3.72;;;3.42;;
5999;SDS011;3028;49.468;7.694;2022-09-29T12:01:42;4.20;;;2.67;;
5999;SDS011;3028;49.468;7.694;2022-09-29T12:06:15;2.88;;;2.30;;
5999;SDS011;3028;49.468;7.694;2022-09-29T12:10:37;3.22;;;2.90;;
5999;SDS011;3028;49.468;7.694;2022-09-29T12:12:52;3.75;;;3.05;;
5999;SDS011;3028;49.468;7.694;2022-09-29T12:15:17;7.07;;;2.20;;
5999;SDS011;3028;49.468;7.694;2022-09-29T12:17:26;2.55;;;2.35;;
5999;SDS011;3028;49.468;7.694;2022-09-29T12:19:32;6.25;;;2.10;;
5999;SDS011;3028;49.468;7.694;2022-09-29T12:21:41;4.72;;;2.03;;
5999;SDS011;3028;49.468;7.694;2022-09-29T12:23:47;3.13;;;2.38;;
5999;SDS011;3028;49.468;7.694;2022-09-29T12:25:56;4.55;;;1.88;;
5999;SDS011;3028;49.468;7.694;2022-09-29T12:28:04;3.25;;;2.30;;
5999;SDS011;3028;49.468;7.694;2022-09-29T12:32:43;3.50;;;1.95;;
5999;SDS011;3028;49.468;7.694;2022-09-29T12:35:24;3.53;;;1.90;;
5999;SDS011;3028;49.468;7.694;2022-09-29T12:37:32;2.20;;;1.95;;
5999;SDS011;3028;49.468;7.694;2022-09-29T12:39:49;3.10;;;2.30;;
5999;SDS011;3028;49.468;7.694;2022-09-29T12:42:00;2.47;;;1.90;;
5999;SDS011;3028;49.468;7.694;2022-09-29T12:47:37;3.17;;;2.00;;
5999;SDS011;3028;49.468;7.694;2022-09-29T12:49:35;2.47;;;1.50;;
5999;SDS011;3028;49.468;7.694;2022-09-29T12:53:51;2.22;;;1.85;;
5999;SDS011;3028;49.468;7.694;2022-09-29T12:56:11;2.40;;;1.30;;
5999;SDS011;3028;49.468;7.694;2022-09-29T12:58:40;3.13;;;1.60;;
5999;SDS011;3028;49.468;7.694;2022-09-29T13:00:47;7.75;;;1.58;;
5999;SDS011;3028;49.468;7.694;2022-09-29T13:05:25;6.43;;;3.38;;
5999;SDS011;3028;49.468;7.694;2022-09-29T13:13:22;1.38;;;1.27;;
5999;SDS011;3028;49.468;7.694;2022-09-29T13:29:09;2.35;;;1.33;;
5999;SDS011;3028;49.468;7.694;2022-09-29T13:31:17;1.55;;;1.45;;
5999;SDS011;3028;49.468;7.694;2022-09-29T13:33:22;1.10;;;1.00;;
5999;SDS011;3028;49.468;7.694;2022-09-29T13:35:25;2.25;;;1.35;;
5999;SDS011;3028;49.468;7.694;2022-09-29T13:37:32;1.63;;;1.38;;
5999;SDS011;3028;49.468;7.694;2022-09-29T13:39:44;8.75;;;1.20;;
5999;SDS011;3028;49.468;7.694;2022-09-29T13:41:52;2.00;;;1.13;;
5999;SDS011;3028;49.468;7.694;2022-09-29T13:45:57;1.33;;;0.93;;
5999;SDS011;3028;49.468;7.694;2022-09-29T13:50:38;1.55;;;0.90;;
5999;SDS011;3028;49.468;7.694;2022-09-29T13:52:46;5.82;;;1.20;;
5999;SDS011;3028;49.468;7.694;2022-09-29T13:54:48;4.93;;;1.58;;
5999;SDS011;3028;49.468;7.694;2022-09-29T13:56:51;3.88;;;0.95;;
5999;SDS011;3028;49.468;7.694;2022-09-29T13:59:00;2.28;;;1.35;;
5999;SDS011;3028;49.468;7.694;2022-09-29T14:01:03;2.53;;;1.65;;
5999;SDS011;3028;49.468;7.694;2022-09-29T14:03:16;2.55;;;1.17;;
5999;SDS011;3028;49.468;7.694;2022-09-29T14:07:34;1.88;;;1.30;;
5999;SDS011;3028;49.468;7.694;2022-09-29T14:09:45;3.60;;;1.85;;
5999;SDS011;3028;49.468;7.694;2022-09-29T14:11:49;2.28;;;1.00;;
5999;SDS011;3028;49.468;7.694;2022-09-29T14:13:53;2.65;;;2.45;;
5999;SDS011;3028;49.468;7.694;2022-09-29T14:20:19;1.77;;;1.58;;
5999;SDS011;3028;49.468;7.694;2022-09-29T14:28:49;4.70;;;4.18;;
5999;SDS011;3028;49.468;7.694;2022-09-29T14:30:53;10.25;;;8.70;;
5999;SDS011;3028;49.468;7.694;2022-09-29T14:32:58;28.10;;;25.58;;
5999;SDS011;3028;49.468;7.694;2022-09-29T14:35:02;5.25;;;4.82;;
5999;SDS011;3028;49.468;7.694;2022-09-29T14:37:05;5.20;;;4.80;;
5999;SDS011;3028;49.468;7.694;2022-09-29T14:39:18;3.75;;;3.53;;
5999;SDS011;3028;49.468;7.694;2022-09-29T14:41:27;3.80;;;2.85;;
5999;SDS011;3028;49.468;7.694;2022-09-29T14:46:06;3.20;;;2.85;;
5999;SDS011;3028;49.468;7.694;2022-09-29T14:48:38;2.72;;;2.03;;
5999;SDS011;3028;49.468;7.694;2022-09-29T14:51:12;7.32;;;3.17;;
5999;SDS011;3028;49.468;7.694;2022-09-29T15:00:41;3.03;;;1.98;;
5999;SDS011;3028;49.468;7.694;2022-09-29T15:02:50;1.85;;;1.70;;
5999;SDS011;3028;49.468;7.694;2022-09-29T15:07:30;2.97;;;2.35;;
5999;SDS011;3028;49.468;7.694;2022-09-29T15:09:45;3.20;;;2.40;;
5999;SDS011;3028;49.468;7.694;2022-09-29T15:11:49;7.55;;;3.00;;
5999;SDS011;3028;49.468;7.694;2022-09-29T15:13:53;2.08;;;1.75;;
5999;SDS011;3028;49.468;7.694;2022-09-29T15:16:09;2.95;;;2.15;;
5999;SDS011;3028;49.468;7.694;2022-09-29T15:18:38;2.70;;;2.47;;
5999;SDS011;3028;49.468;7.694;2022-09-29T15:21:20;2.17;;;1.90;;
5999;SDS011;3028;49.468;7.694;2022-09-29T15:25:44;2.95;;;1.85;;
5999;SDS011;3028;49.468;7.694;2022-09-29T15:27:48;1.92;;;1.45;;
5999;SDS011;3028;49.468;7.694;2022-09-29T15:29:53;2.47;;;1.90;;
5999;SDS011;3028;49.468;7.694;2022-09-29T15:31:55;2.00;;;1.90;;
5999;SDS011;3028;49.468;7.694;2022-09-29T15:33:57;2.45;;;2.22;;
5999;SDS011;3028;49.468;7.694;2022-09-29T15:35:59;2.08;;;1.90;;
5999;SDS011;3028;49.468;7.694;2022-09-29T15:40:14;5.35;;;4.05;;
5999;SDS011;3028;49.468;7.694;2022-09-29T15:42:21;4.95;;;4.05;;
5999;SDS011;3028;49.468;7.694;2022-09-29T15:44:30;4.72;;;4.28;;
5999;SDS011;3028;49.468;7.694;2022-09-29T15:48:41;4.63;;;4.22;;
5999;SDS011;3028;49.468;7.694;2022-09-29T15:51:05;4.93;;;3.75;;
5999;SDS011;3028;49.468;7.694;2022-09-29T15:53:18;5.70;;;3.65;;